createdAt,value
2019-04-04T04:00:52.873Z,993.26
2019-04-04T04:01:52.732Z,993.24
2019-04-04T04:03:45.402Z,993.33
2019-04-04T04:04:45.315Z,993.37
2019-04-04T04:06:41.322Z,993.52
2019-04-04T04:07:37.844Z,993.55
2019-04-04T04:09:30.515Z,993.55
2019-04-04T04:10:33.357Z,993.55
2019-04-04T04:12:23.097Z,993.55
2019-04-04T04:13:22.953Z,993.57
2019-04-04T04:15:15.617Z,993.67
2019-04-04T04:16:15.516Z,993.73
2019-04-04T04:18:08.187Z,993.74
2019-04-04T04:19:08.058Z,993.77
2019-04-04T04:21:00.714Z,993.72
2019-04-04T04:22:00.607Z,993.70
2019-04-04T04:23:56.463Z,993.73
2019-04-04T04:24:53.155Z,993.69
2019-04-04T04:26:45.828Z,993.57
2019-04-04T04:27:48.510Z,993.57
2019-04-04T04:29:38.399Z,993.56
2019-04-04T04:30:40.603Z,993.59
2019-04-04T04:32:30.922Z,993.50
2019-04-04T04:33:30.801Z,993.48
2019-04-04T04:35:23.492Z,993.40
2019-04-04T04:36:23.368Z,993.37
2019-04-04T04:38:16.024Z,993.42
2019-04-04T04:39:15.908Z,993.50
2019-04-04T04:41:08.591Z,993.64
2019-04-04T04:42:08.459Z,993.69
2019-04-04T04:44:02.773Z,993.60
2019-04-04T04:45:01.008Z,993.57
2019-04-04T04:46:53.690Z,993.53
2019-04-04T04:47:55.954Z,993.37
2019-04-04T04:49:46.226Z,993.34
2019-04-04T04:50:46.119Z,993.34
2019-04-04T04:52:38.812Z,993.39
2019-04-04T04:53:38.671Z,993.39
2019-04-04T04:55:31.344Z,993.40
2019-04-04T04:56:31.932Z,993.41
2019-04-04T04:58:23.909Z,993.37
2019-04-04T04:59:23.777Z,993.36
2019-04-04T05:01:18.345Z,993.42
2019-04-04T05:02:16.336Z,993.34
2019-04-04T05:04:09.021Z,993.44
2019-04-04T05:05:08.883Z,993.47
2019-04-04T05:07:01.579Z,993.42
2019-04-04T05:08:01.447Z,993.37
2019-04-04T05:09:54.136Z,993.39
2019-04-04T05:10:54.001Z,993.38
2019-04-04T05:12:46.671Z,993.48
2019-04-04T05:13:46.549Z,993.43
2019-04-04T05:15:39.237Z,993.42
2019-04-04T05:16:39.096Z,993.36
2019-04-04T05:18:31.761Z,993.36
2019-04-04T05:19:31.670Z,993.37
2019-04-04T05:21:26.284Z,993.41
2019-04-04T05:22:24.207Z,993.41
2019-04-04T05:24:18.124Z,993.47
2019-04-04T05:25:16.758Z,993.47
2019-04-04T05:27:09.450Z,993.57
2019-04-04T05:28:10.816Z,993.58
2019-04-04T05:30:02.055Z,993.51
2019-04-04T05:31:01.876Z,993.55
2019-04-04T05:32:56.417Z,993.52
2019-04-04T05:33:54.421Z,993.50
2019-04-04T05:35:47.093Z,993.51
2019-04-04T05:36:46.979Z,993.49
2019-04-04T05:38:42.655Z,993.28
2019-04-04T05:39:40.522Z,993.19
2019-04-04T05:41:33.188Z,993.29
2019-04-04T05:42:33.664Z,993.37
2019-04-04T05:44:25.776Z,993.59
2019-04-04T05:45:25.638Z,993.67
2019-04-04T05:47:18.323Z,993.74
2019-04-04T05:48:18.204Z,993.76
2019-04-04T05:50:11.457Z,993.75
2019-04-04T05:51:10.762Z,993.77
2019-04-04T05:53:04.287Z,993.76
2019-04-04T05:54:03.343Z,993.79
2019-04-04T05:55:56.012Z,993.83
2019-04-04T05:56:55.883Z,993.93
2019-04-04T05:58:48.536Z,993.92
2019-04-04T05:59:48.420Z,993.90
2019-04-04T06:01:41.107Z,993.85
2019-04-04T06:02:42.934Z,993.82
2019-04-04T06:04:33.646Z,993.67
2019-04-04T06:05:33.526Z,993.62
2019-04-04T06:07:26.212Z,993.58
2019-04-04T06:08:26.072Z,993.67
2019-04-04T06:10:19.149Z,993.68
2019-04-04T06:11:20.850Z,993.79
2019-04-04T06:13:11.299Z,993.77
2019-04-04T06:14:11.180Z,993.80
2019-04-04T06:16:04.225Z,993.76
2019-04-04T06:17:05.077Z,993.72
2019-04-04T06:18:56.417Z,993.61
2019-04-04T06:19:56.291Z,993.54
2019-04-04T06:21:49.902Z,993.63
2019-04-04T06:22:50.045Z,993.80
2019-04-04T06:24:41.532Z,993.94
2019-04-04T06:25:41.395Z,994.01
2019-04-04T06:27:34.068Z,994.04
2019-04-04T06:28:33.958Z,994.04
2019-04-04T06:30:26.644Z,993.95
2019-04-04T06:31:30.645Z,993.97
2019-04-04T06:33:19.189Z,993.97
2019-04-04T06:34:19.083Z,993.99
2019-04-04T06:36:11.741Z,993.92
2019-04-04T06:37:11.609Z,993.93
2019-04-04T06:39:04.265Z,993.94
2019-04-04T06:40:04.159Z,994.01
2019-04-04T06:41:56.850Z,993.95
2019-04-04T06:42:56.714Z,993.91
2019-04-04T06:44:49.366Z,993.77
2019-04-04T06:45:49.257Z,993.66
2019-04-04T06:47:41.947Z,993.52
2019-04-04T06:48:41.811Z,993.50
2019-04-04T06:50:34.480Z,993.66
2019-04-04T06:51:34.360Z,993.79
2019-04-04T06:53:27.064Z,993.87
2019-04-04T06:54:26.937Z,993.89
2019-04-04T06:56:19.644Z,993.92
2019-04-04T06:57:19.493Z,993.96
2019-04-04T06:59:12.502Z,994.12
2019-04-04T07:00:15.530Z,994.14
2019-04-04T07:02:05.303Z,994.11
2019-04-04T07:03:04.618Z,994.07
2019-04-04T07:04:57.294Z,994.02
2019-04-04T07:05:57.155Z,994.07
2019-04-04T07:07:49.820Z,994.11
2019-04-04T07:08:49.717Z,994.16
2019-04-04T07:10:42.410Z,994.11
2019-04-04T07:11:42.277Z,994.14
2019-04-04T07:13:42.430Z,994.14
2019-04-04T07:14:45.218Z,994.17
2019-04-04T07:16:27.507Z,994.24
2019-04-04T07:17:27.369Z,994.31
2019-04-04T07:19:20.036Z,994.35
2019-04-04T07:20:19.931Z,994.38
2019-04-04T07:22:12.631Z,994.38
2019-04-04T07:23:14.368Z,994.40
2019-04-04T07:25:06.564Z,994.44
2019-04-04T07:26:05.033Z,994.49
2019-04-04T07:27:57.738Z,994.40
2019-04-04T07:28:57.590Z,994.44
2019-04-04T07:30:50.265Z,994.37
2019-04-04T07:31:50.161Z,994.35
2019-04-04T07:33:43.334Z,994.34
2019-04-04T07:34:45.108Z,994.33
2019-04-04T07:36:35.374Z,994.37
2019-04-04T07:37:35.265Z,994.37
2019-04-04T07:39:27.958Z,994.45
2019-04-04T07:40:27.824Z,994.45
2019-04-04T07:42:20.494Z,994.38
2019-04-04T07:43:20.379Z,994.45
2019-04-04T07:45:14.472Z,994.39
2019-04-04T07:46:16.760Z,994.39
2019-04-04T07:48:05.608Z,994.39
2019-04-04T07:49:05.507Z,994.42
2019-04-04T07:50:58.492Z,994.53
2019-04-04T07:51:58.059Z,994.51
2019-04-04T07:53:50.730Z,994.52
2019-04-04T07:54:50.622Z,994.59
2019-04-04T07:56:46.875Z,994.67
2019-04-04T07:57:43.172Z,994.69
2019-04-04T07:59:35.858Z,994.70
2019-04-04T08:00:35.729Z,994.58
2019-04-04T08:02:28.418Z,994.66
2019-04-04T08:03:28.284Z,994.67
2019-04-04T08:05:20.956Z,994.69
2019-04-04T08:06:20.843Z,994.70
2019-04-04T08:08:13.527Z,994.69
2019-04-04T08:09:13.399Z,994.70
2019-04-04T08:11:06.089Z,994.75
2019-04-04T08:12:05.962Z,994.74
2019-04-04T08:13:58.662Z,994.73
2019-04-04T08:14:58.538Z,994.70
2019-04-04T08:16:51.201Z,994.76
2019-04-04T08:17:51.086Z,994.70
2019-04-04T08:19:43.766Z,994.68
2019-04-04T08:20:43.636Z,994.70
2019-04-04T08:22:39.463Z,994.77
2019-04-04T08:23:36.200Z,994.77
2019-04-04T08:25:28.890Z,994.82
2019-04-04T08:26:28.759Z,994.80
2019-04-04T08:28:21.582Z,994.74
2019-04-04T08:29:21.319Z,994.80
2019-04-04T08:31:13.996Z,994.83
2019-04-04T08:32:13.873Z,994.83
2019-04-04T08:34:06.535Z,994.87
2019-04-04T08:35:06.428Z,994.91
2019-04-04T08:36:59.112Z,994.86
2019-04-04T08:37:58.981Z,994.88
2019-04-04T08:39:51.656Z,995.00
2019-04-04T08:40:51.543Z,995.01
2019-04-04T08:42:44.244Z,994.94
2019-04-04T08:43:44.121Z,994.98
2019-04-04T08:45:36.791Z,994.91
2019-04-04T08:46:36.691Z,994.89
2019-04-04T08:48:29.366Z,994.95
2019-04-04T08:49:29.227Z,994.97
2019-04-04T08:51:21.899Z,994.96
2019-04-04T08:52:21.784Z,994.94
2019-04-04T08:54:14.477Z,994.98
2019-04-04T08:55:14.342Z,994.97
2019-04-04T08:57:07.019Z,994.98
2019-04-04T08:58:06.902Z,994.93
2019-04-04T08:59:59.589Z,994.97
2019-04-04T09:00:59.449Z,994.97
2019-04-04T09:02:52.129Z,994.98
2019-04-04T09:03:52.075Z,994.96
2019-04-04T09:05:44.718Z,995.02
2019-04-04T09:06:44.576Z,994.98
2019-04-04T09:08:37.245Z,994.99
2019-04-04T09:09:37.203Z,995.01
2019-04-04T09:11:29.826Z,995.11
2019-04-04T09:12:29.693Z,995.09
2019-04-04T09:14:22.366Z,995.06
2019-04-04T09:15:22.253Z,995.00
2019-04-04T09:17:14.940Z,994.95
2019-04-04T09:18:14.811Z,995.00
2019-04-04T09:20:09.511Z,995.11
2019-04-04T09:21:07.361Z,995.13
2019-04-04T09:23:00.054Z,995.13
2019-04-04T09:24:00.847Z,995.06
2019-04-04T09:26:04.666Z,995.03
2019-04-04T09:26:52.474Z,995.01
2019-04-04T09:28:45.172Z,995.03
2019-04-04T09:29:45.032Z,995.07
2019-04-04T09:31:37.702Z,995.12
2019-04-04T09:32:37.594Z,995.13
2019-04-04T09:34:30.270Z,995.19
2019-04-04T09:35:30.147Z,995.18
2019-04-04T09:37:22.820Z,995.21
2019-04-04T09:38:22.699Z,995.20
2019-04-04T09:40:15.385Z,995.24
2019-04-04T09:41:15.261Z,995.16
2019-04-04T09:43:07.932Z,995.09
2019-04-04T09:44:07.819Z,995.06
2019-04-04T09:46:00.510Z,995.05
2019-04-04T09:47:05.483Z,995.06
2019-04-04T09:48:53.047Z,995.02
2019-04-04T09:49:52.935Z,995.02
2019-04-04T09:51:45.626Z,995.04
2019-04-04T09:52:45.505Z,995.02
2019-04-04T09:54:38.177Z,995.03
2019-04-04T09:55:38.071Z,995.03
2019-04-04T09:57:30.749Z,995.07
2019-04-04T09:58:30.622Z,995.06
2019-04-04T10:00:23.291Z,995.07
2019-04-04T10:01:23.177Z,995.12
2019-04-04T10:03:15.877Z,995.06
2019-04-04T10:04:15.743Z,995.04
2019-04-04T10:06:08.419Z,995.00
2019-04-04T10:07:08.299Z,994.98
2019-04-04T10:09:00.992Z,994.97
2019-04-04T10:10:00.861Z,994.95
2019-04-04T10:11:53.534Z,994.97
2019-04-04T10:12:53.427Z,994.99
2019-04-04T10:14:46.112Z,994.99
2019-04-04T10:15:45.987Z,994.97
2019-04-04T10:17:38.663Z,994.97
2019-04-04T10:18:38.535Z,995.02
2019-04-04T10:20:31.226Z,995.07
2019-04-04T10:21:31.096Z,995.05
2019-04-04T10:23:23.788Z,995.06
2019-04-04T10:24:23.662Z,995.05
2019-04-04T10:26:16.354Z,995.04
2019-04-04T10:27:16.224Z,995.07
2019-04-04T10:29:08.906Z,994.95
2019-04-04T10:30:08.794Z,994.91
2019-04-04T10:32:01.485Z,994.95
2019-04-04T10:33:01.353Z,995.08
2019-04-04T10:34:54.017Z,995.03
2019-04-04T10:35:53.913Z,995.02
2019-04-04T10:37:46.589Z,995.00
2019-04-04T10:38:46.468Z,994.97
2019-04-04T10:40:39.143Z,994.90
2019-04-04T10:41:39.026Z,994.96
2019-04-04T10:43:31.711Z,994.97
2019-04-04T10:44:31.577Z,994.96
2019-04-04T10:46:24.246Z,994.95
2019-04-04T10:47:24.128Z,994.97
2019-04-04T10:49:16.827Z,995.01
2019-04-04T10:50:16.703Z,995.07
2019-04-04T10:52:09.371Z,995.04
2019-04-04T10:53:09.259Z,995.03
2019-04-04T10:55:01.958Z,995.00
2019-04-04T10:56:01.823Z,994.99
2019-04-04T10:57:54.496Z,995.02
2019-04-04T10:58:54.378Z,994.98
2019-04-04T11:00:47.074Z,995.01
2019-04-04T11:01:46.937Z,995.01
2019-04-04T11:03:39.609Z,995.03
2019-04-04T11:04:39.490Z,995.07
2019-04-04T11:06:32.187Z,995.12
2019-04-04T11:07:32.053Z,995.12
2019-04-04T11:09:24.729Z,995.07
2019-04-04T11:10:24.606Z,995.05
2019-04-04T11:12:17.295Z,995.07
2019-04-04T11:13:17.171Z,995.04
2019-04-04T11:15:09.842Z,995.01
2019-04-04T11:16:09.754Z,994.99
2019-04-04T11:18:02.415Z,995.05
2019-04-04T11:19:02.292Z,994.98
2019-04-04T11:20:54.975Z,995.03
2019-04-04T11:21:54.863Z,994.99
2019-04-04T11:23:47.602Z,994.89
2019-04-04T11:24:47.425Z,994.84
2019-04-04T11:26:40.095Z,994.81
2019-04-04T11:27:39.981Z,994.78
2019-04-04T11:29:32.714Z,994.79
2019-04-04T11:30:32.544Z,994.85
2019-04-04T11:32:25.248Z,994.85
2019-04-04T11:33:25.111Z,994.92
2019-04-04T11:35:17.810Z,994.98
2019-04-04T11:36:17.674Z,994.96
2019-04-04T11:38:10.369Z,995.06
2019-04-04T11:39:10.243Z,995.05
2019-04-04T11:41:02.945Z,995.07
2019-04-04T11:42:02.823Z,995.06
2019-04-04T11:43:55.491Z,995.04
2019-04-04T11:44:55.381Z,995.05
2019-04-04T11:46:48.083Z,995.05
2019-04-04T11:47:47.945Z,995.07
2019-04-04T11:49:40.621Z,995.04
2019-04-04T11:50:40.507Z,995.06
2019-04-04T11:52:33.215Z,995.08
2019-04-04T11:53:33.069Z,995.15
2019-04-04T11:55:25.739Z,995.17
2019-04-04T11:56:25.629Z,995.12
2019-04-04T11:58:18.316Z,995.23
2019-04-04T11:59:18.189Z,995.19
2019-04-04T12:01:10.869Z,995.20
2019-04-04T12:02:10.750Z,995.20
2019-04-04T12:04:03.430Z,995.20
2019-04-04T12:05:03.309Z,995.17
2019-04-04T12:06:55.977Z,995.26
2019-04-04T12:07:55.869Z,995.25
2019-04-04T12:09:48.584Z,995.29
2019-04-04T12:10:48.426Z,995.27
2019-04-04T12:12:41.101Z,995.34
2019-04-04T12:13:40.997Z,995.31
2019-04-04T12:15:33.689Z,995.30
2019-04-04T12:16:33.561Z,995.31
2019-04-04T12:18:26.231Z,995.29
2019-04-04T12:19:26.119Z,995.31
2019-04-04T12:21:18.826Z,995.35
2019-04-04T12:22:18.697Z,995.30
2019-04-04T12:24:11.368Z,995.37
2019-04-04T12:25:11.256Z,995.39
2019-04-04T12:27:03.958Z,995.42
2019-04-04T12:28:03.827Z,995.48
2019-04-04T12:29:56.495Z,995.49
2019-04-04T12:30:56.391Z,995.55
2019-04-04T12:32:49.107Z,995.64
2019-04-04T12:33:48.983Z,995.66
2019-04-04T12:35:41.616Z,995.64
2019-04-04T12:36:41.508Z,995.66
2019-04-04T12:38:34.201Z,995.60
2019-04-04T12:39:34.070Z,995.62
2019-04-04T12:41:28.214Z,995.65
2019-04-04T12:42:26.632Z,995.61
2019-04-04T12:44:19.404Z,995.54
2019-04-04T12:45:19.215Z,995.58
2019-04-04T12:47:11.887Z,995.48
2019-04-04T12:48:11.768Z,995.47
2019-04-04T12:50:04.464Z,995.38
2019-04-04T12:51:04.324Z,995.42
2019-04-04T12:52:56.991Z,995.43
2019-04-04T12:53:56.885Z,995.39
2019-04-04T12:55:49.570Z,995.42
2019-04-04T12:56:49.449Z,995.46
2019-04-04T12:58:42.106Z,995.47
2019-04-04T12:59:42.008Z,995.40
2019-04-04T13:01:34.693Z,995.30
2019-04-04T13:02:34.569Z,995.25
2019-04-04T13:04:31.897Z,995.29
2019-04-04T13:05:27.139Z,995.27
2019-04-04T13:07:19.878Z,995.23
2019-04-04T13:08:19.695Z,995.26
2019-04-04T13:10:12.449Z,995.20
2019-04-04T13:11:12.266Z,995.19
2019-04-04T13:13:04.945Z,995.35
2019-04-04T13:14:04.818Z,995.42
2019-04-04T13:15:57.494Z,995.39
2019-04-04T13:16:57.386Z,995.37
2019-04-04T13:18:50.084Z,995.38
2019-04-04T13:19:49.953Z,995.34
2019-04-04T13:21:42.623Z,995.31
2019-04-04T13:22:42.504Z,995.29
2019-04-04T13:24:35.209Z,995.25
2019-04-04T13:25:35.077Z,995.24
2019-04-04T13:27:27.760Z,995.22
2019-04-04T13:28:27.740Z,995.15
2019-04-04T13:30:20.349Z,995.06
2019-04-04T13:31:20.212Z,995.05
2019-04-04T13:33:12.968Z,995.07
2019-04-04T13:34:12.859Z,995.08
2019-04-04T13:36:05.593Z,995.16
2019-04-04T13:37:05.454Z,995.17
2019-04-04T13:38:58.096Z,995.15
2019-04-04T13:39:57.989Z,995.13
2019-04-04T13:41:50.671Z,995.19
2019-04-04T13:42:52.738Z,995.27
2019-04-04T13:44:44.938Z,995.20
2019-04-04T13:45:43.102Z,995.20
2019-04-04T13:47:38.278Z,995.31
2019-04-04T13:48:35.657Z,995.35
2019-04-04T13:50:28.320Z,995.45
2019-04-04T13:51:28.211Z,995.47
2019-04-04T13:53:21.133Z,995.58
2019-04-04T13:54:20.782Z,995.66
2019-04-04T13:56:13.465Z,995.71
2019-04-04T13:57:13.349Z,995.75
2019-04-04T13:59:06.126Z,995.77
2019-04-04T14:00:05.902Z,995.79
2019-04-04T14:01:58.581Z,995.81
2019-04-04T14:02:58.462Z,995.83
2019-04-04T14:04:54.858Z,995.92
2019-04-04T14:05:51.019Z,995.98
2019-04-04T14:07:44.184Z,995.98
2019-04-04T14:08:45.690Z,996.01
2019-04-04T14:10:36.283Z,996.02
2019-04-04T14:11:36.150Z,996.04
2019-04-04T14:13:28.817Z,996.02
2019-04-04T14:14:28.699Z,995.99
2019-04-04T14:16:21.396Z,996.01
2019-04-04T14:17:21.303Z,996.01
2019-04-04T14:19:13.929Z,996.06
2019-04-04T14:20:13.830Z,996.09
2019-04-04T14:22:06.518Z,996.06
2019-04-04T14:23:06.375Z,996.12
2019-04-04T14:24:59.055Z,996.07
2019-04-04T14:25:59.939Z,996.05
2019-04-04T14:27:51.629Z,996.02
2019-04-04T14:28:51.508Z,995.98
2019-04-04T14:30:44.169Z,995.92
2019-04-04T14:31:44.056Z,995.92
2019-04-04T14:33:36.743Z,995.93
2019-04-04T14:34:36.617Z,995.98
2019-04-04T14:36:29.286Z,996.03
2019-04-04T14:37:29.219Z,996.06
2019-04-04T14:39:21.867Z,996.02
2019-04-04T14:40:21.723Z,995.99
2019-04-04T14:42:14.391Z,995.98
2019-04-04T14:43:14.286Z,996.02
2019-04-04T14:45:06.985Z,996.09
2019-04-04T14:46:06.835Z,996.11
2019-04-04T14:47:59.518Z,996.13
2019-04-04T14:48:59.409Z,996.20
2019-04-04T14:50:52.095Z,996.28
2019-04-04T14:51:51.969Z,996.33
2019-04-04T14:53:44.637Z,996.31
2019-04-04T14:54:44.520Z,996.34
2019-04-04T14:56:37.214Z,996.29
2019-04-04T14:57:37.088Z,996.23
2019-04-04T14:59:29.739Z,996.15
2019-04-04T15:00:29.630Z,996.16
2019-04-04T15:02:22.310Z,996.14
2019-04-04T15:03:22.181Z,996.10
2019-04-04T15:05:14.876Z,996.07
2019-04-04T15:06:14.772Z,996.05
2019-04-04T15:08:07.451Z,995.99
2019-04-04T15:09:07.322Z,996.04
2019-04-04T15:11:00.155Z,996.06
2019-04-04T15:11:59.893Z,996.07
2019-04-04T15:13:52.581Z,996.17
2019-04-04T15:14:52.447Z,996.24
2019-04-04T15:16:45.121Z,996.31
2019-04-04T15:17:45.003Z,996.38
2019-04-04T15:19:37.684Z,996.38
2019-04-04T15:20:37.566Z,996.32
2019-04-04T15:22:31.892Z,996.31
2019-04-04T15:23:30.104Z,996.36
2019-04-04T15:25:22.831Z,996.50
2019-04-04T15:26:22.693Z,996.55
2019-04-04T15:28:15.369Z,996.63
2019-04-04T15:29:15.255Z,996.61
2019-04-04T15:31:07.953Z,996.56
2019-04-04T15:32:07.820Z,996.57
2019-04-04T15:34:00.487Z,996.57
2019-04-04T15:35:00.372Z,996.57
2019-04-04T15:36:53.053Z,996.61
2019-04-04T15:37:52.922Z,996.57
2019-04-04T15:39:45.589Z,996.66
2019-04-04T15:40:45.479Z,996.70
2019-04-04T15:42:38.168Z,996.65
2019-04-04T15:43:38.030Z,996.67
2019-04-04T15:45:30.704Z,996.76
2019-04-04T15:46:30.586Z,996.82
2019-04-04T15:48:23.287Z,996.71
2019-04-04T15:49:23.151Z,996.63
2019-04-04T15:51:15.821Z,996.55
2019-04-04T15:52:15.709Z,996.43
2019-04-04T15:54:08.392Z,996.47
2019-04-04T15:55:08.283Z,996.49
2019-04-04T15:57:00.954Z,996.47
2019-04-04T15:58:00.826Z,996.49
2019-04-04T15:59:53.519Z,996.46
2019-04-04T16:00:53.393Z,996.46
2019-04-04T16:02:46.056Z,996.50
2019-04-04T16:03:45.934Z,996.58
2019-04-04T16:05:38.899Z,996.59
2019-04-04T16:06:38.489Z,996.58
2019-04-04T16:08:31.158Z,996.65
2019-04-04T16:09:31.045Z,996.70
2019-04-04T16:11:23.755Z,996.82
2019-04-04T16:12:23.624Z,996.80
2019-04-04T16:14:16.304Z,996.85
2019-04-04T16:15:16.189Z,996.84
2019-04-04T16:17:08.865Z,996.77
2019-04-04T16:18:08.737Z,996.76
2019-04-04T16:20:01.394Z,996.70
2019-04-04T16:21:01.285Z,996.76
2019-04-04T16:22:53.967Z,996.83
2019-04-04T16:23:53.833Z,996.77
2019-04-04T16:25:46.503Z,996.75
2019-04-04T16:26:46.394Z,996.70
2019-04-04T16:28:39.082Z,996.74
2019-04-04T16:29:38.942Z,996.68
2019-04-04T16:31:34.359Z,996.71
2019-04-04T16:32:31.536Z,996.70
2019-04-04T16:34:24.222Z,996.75
2019-04-04T16:35:24.100Z,996.77
2019-04-04T16:37:16.760Z,996.87
2019-04-04T16:38:16.637Z,996.96
2019-04-04T16:40:09.724Z,997.10
2019-04-04T16:41:09.193Z,997.10
2019-04-04T16:43:01.884Z,997.05
2019-04-04T16:44:01.748Z,997.09
2019-04-04T16:45:54.437Z,997.17
2019-04-04T16:46:54.293Z,997.22
2019-04-04T16:48:46.966Z,997.20
2019-04-04T16:49:46.854Z,997.17
2019-04-04T16:51:39.538Z,997.05
2019-04-04T16:52:39.410Z,997.06
2019-04-04T16:54:32.074Z,997.08
2019-04-04T16:55:31.967Z,997.18
2019-04-04T16:57:24.633Z,997.14
2019-04-04T16:58:24.521Z,997.10
2019-04-04T17:00:17.170Z,997.09
2019-04-04T17:01:17.061Z,997.12
2019-04-04T17:03:09.782Z,997.20
2019-04-04T17:04:09.635Z,997.23
2019-04-04T17:06:02.297Z,997.31
2019-04-04T17:07:02.181Z,997.32
2019-04-04T17:08:54.878Z,997.25
2019-04-04T17:09:54.740Z,997.27
2019-04-04T17:11:47.400Z,997.18
2019-04-04T17:12:47.287Z,997.18
2019-04-04T17:14:39.971Z,997.27
2019-04-04T17:15:39.854Z,997.31
2019-04-04T17:17:32.513Z,997.42
2019-04-04T17:18:32.404Z,997.33
2019-04-04T17:20:25.086Z,997.28
2019-04-04T17:21:24.952Z,997.25
2019-04-04T17:23:17.624Z,997.31
2019-04-04T17:24:17.509Z,997.32
2019-04-04T17:26:10.198Z,997.28
2019-04-04T17:27:10.063Z,997.27
2019-04-04T17:29:02.731Z,997.24
2019-04-04T17:30:02.626Z,997.27
2019-04-04T17:31:55.299Z,997.20
2019-04-04T17:32:55.520Z,997.15
2019-04-04T17:34:47.836Z,997.13
2019-04-04T17:35:47.730Z,997.09
2019-04-04T17:37:40.417Z,997.11
2019-04-04T17:38:40.278Z,997.09
2019-04-04T17:40:33.488Z,997.11
2019-04-04T17:41:33.241Z,997.14
2019-04-04T17:43:25.525Z,997.18
2019-04-04T17:44:25.396Z,997.16
2019-04-04T17:46:18.134Z,997.13
2019-04-04T17:47:18.086Z,997.15
2019-04-04T17:49:10.644Z,997.21
2019-04-04T17:50:10.762Z,997.24
2019-04-04T17:52:03.176Z,997.35
2019-04-04T17:53:03.066Z,997.35
2019-04-04T17:54:55.765Z,997.42
2019-04-04T17:55:56.140Z,997.43
2019-04-04T17:57:48.754Z,997.48
2019-04-04T17:58:48.187Z,997.45
2019-04-04T18:00:40.870Z,997.48
2019-04-04T18:01:40.730Z,997.51
2019-04-04T18:03:33.404Z,997.52
2019-04-04T18:04:34.729Z,997.56
2019-04-04T18:06:25.971Z,997.56
2019-04-04T18:07:25.840Z,997.58
2019-04-04T18:09:30.865Z,997.64
2019-04-04T18:10:18.391Z,997.64
2019-04-04T18:12:11.077Z,997.61
2019-04-04T18:13:10.946Z,997.64
2019-04-04T18:15:03.610Z,997.67
2019-04-04T18:16:03.503Z,997.64
2019-04-04T18:17:56.772Z,997.70
2019-04-04T18:18:56.049Z,997.65
2019-04-04T18:20:48.708Z,997.68
2019-04-04T18:21:48.594Z,997.69
2019-04-04T18:23:41.291Z,997.72
2019-04-04T18:24:41.162Z,997.79
2019-04-04T18:26:33.824Z,997.78
2019-04-04T18:27:33.715Z,997.75
2019-04-04T18:29:26.399Z,997.82
2019-04-04T18:30:26.269Z,997.84
2019-04-04T18:32:18.931Z,997.84
2019-04-04T18:33:19.879Z,997.84
2019-04-04T18:35:11.670Z,997.83
2019-04-04T18:36:11.633Z,997.77
2019-04-04T18:38:04.540Z,997.86
2019-04-04T18:39:03.927Z,997.92
2019-04-04T18:40:56.608Z,997.90
2019-04-04T18:41:56.479Z,997.90
2019-04-04T18:43:49.152Z,997.88
2019-04-04T18:44:49.035Z,997.87
2019-04-04T18:46:41.712Z,997.86
2019-04-04T18:47:41.587Z,997.90
2019-04-04T18:49:34.263Z,997.90
2019-04-04T18:50:34.141Z,997.89
2019-04-04T18:52:26.822Z,997.92
2019-04-04T18:53:26.693Z,997.89
2019-04-04T18:55:20.374Z,997.88
2019-04-04T18:56:19.252Z,997.88
2019-04-04T18:58:11.926Z,997.90
2019-04-04T18:59:11.798Z,997.98
2019-04-04T19:01:04.461Z,998.04
2019-04-04T19:02:04.349Z,998.03
2019-04-04T19:03:57.030Z,998.05
2019-04-04T19:04:56.898Z,998.10
2019-04-04T19:06:49.569Z,998.19
2019-04-04T19:07:49.468Z,998.25
2019-04-04T19:09:42.188Z,998.25
2019-04-04T19:10:42.018Z,998.29
2019-04-04T19:12:34.677Z,998.34
2019-04-04T19:13:44.132Z,998.33
2019-04-04T19:15:27.273Z,998.39
2019-04-04T19:16:27.181Z,998.33
2019-04-04T19:18:19.805Z,998.32
2019-04-04T19:19:19.695Z,998.34
2019-04-04T19:21:12.380Z,998.38
2019-04-04T19:22:12.249Z,998.38
2019-04-04T19:24:04.917Z,998.40
2019-04-04T19:25:04.795Z,998.38
2019-04-04T19:26:57.486Z,998.32
2019-04-04T19:27:57.342Z,998.35
2019-04-04T19:29:50.037Z,998.29
2019-04-04T19:30:49.903Z,998.24
2019-04-04T19:32:42.598Z,998.25
2019-04-04T19:33:42.461Z,998.20
2019-04-04T19:35:35.129Z,998.37
2019-04-04T19:36:35.014Z,998.34
2019-04-04T19:38:27.846Z,998.37
2019-04-04T19:39:27.568Z,998.37
2019-04-04T19:41:20.450Z,998.35
2019-04-04T19:42:20.235Z,998.46
2019-04-04T19:44:12.798Z,998.42
2019-04-04T19:45:12.680Z,998.43
2019-04-04T19:47:05.489Z,998.51
2019-04-04T19:48:05.226Z,998.56
2019-04-04T19:49:57.904Z,998.56
2019-04-04T19:50:57.783Z,998.60
2019-04-04T19:52:50.456Z,998.64
2019-04-04T19:53:50.343Z,998.66
2019-04-04T19:55:43.025Z,998.64
2019-04-04T19:56:42.899Z,998.68
2019-04-04T19:58:35.563Z,998.68
2019-04-04T19:59:35.454Z,998.76
2019-04-04T20:01:28.200Z,998.72
2019-04-04T20:02:28.012Z,998.69
2019-04-04T20:04:20.690Z,998.67
2019-04-04T20:05:20.611Z,998.65
2019-04-04T20:07:13.269Z,998.70
2019-04-04T20:08:13.138Z,998.71
2019-04-04T20:10:05.804Z,998.83
2019-04-04T20:11:05.688Z,998.84
2019-04-04T20:12:58.375Z,998.82
2019-04-04T20:13:58.267Z,998.86
2019-04-04T20:15:50.912Z,998.84
2019-04-04T20:16:50.799Z,998.85
2019-04-04T20:18:43.481Z,998.87
2019-04-04T20:19:43.367Z,998.90
2019-04-04T20:21:36.028Z,998.89
2019-04-04T20:22:35.945Z,998.89
2019-04-04T20:24:28.658Z,998.87
2019-04-04T20:25:28.609Z,998.84
2019-04-04T20:27:21.199Z,998.82
2019-04-04T20:28:21.059Z,998.82
2019-04-04T20:30:14.425Z,998.78
2019-04-04T20:31:13.614Z,998.74
2019-04-04T20:33:06.282Z,998.67
2019-04-04T20:34:06.449Z,998.63
2019-04-04T20:35:58.846Z,998.47
2019-04-04T20:36:58.780Z,998.54
2019-04-04T20:38:51.402Z,998.58
2019-04-04T20:39:51.294Z,998.65
2019-04-04T20:41:43.993Z,998.72
2019-04-04T20:42:43.864Z,998.73
2019-04-04T20:44:36.533Z,998.69
2019-04-04T20:45:36.419Z,998.61
2019-04-04T20:47:29.095Z,998.65
2019-04-04T20:48:28.965Z,998.75
2019-04-04T20:50:21.630Z,998.80
2019-04-04T20:51:21.518Z,998.86
2019-04-04T20:53:14.198Z,998.91
2019-04-04T20:54:14.123Z,998.91
2019-04-04T20:56:06.749Z,998.83
2019-04-04T20:57:06.627Z,998.77
2019-04-04T20:58:59.337Z,998.72
2019-04-04T20:59:59.174Z,998.68
2019-04-04T21:01:51.860Z,998.68
2019-04-04T21:02:51.728Z,998.69
2019-04-04T21:04:44.432Z,998.70
2019-04-04T21:05:44.300Z,998.70
2019-04-04T21:07:36.977Z,998.72
2019-04-04T21:08:36.840Z,998.77
2019-04-04T21:10:29.526Z,998.73
2019-04-04T21:11:29.386Z,998.73
2019-04-04T21:13:22.065Z,998.75
2019-04-04T21:14:21.964Z,998.76
2019-04-04T21:16:14.640Z,998.76
2019-04-04T21:17:14.516Z,998.79
2019-04-04T21:19:07.178Z,998.79
2019-04-04T21:20:07.061Z,998.81
2019-04-04T21:21:59.749Z,998.86
2019-04-04T21:22:59.628Z,998.86
2019-04-04T21:24:52.310Z,998.94
2019-04-04T21:25:52.186Z,998.92
2019-04-04T21:27:44.882Z,998.94
2019-04-04T21:28:44.743Z,998.98
2019-04-04T21:30:37.419Z,998.97
2019-04-04T21:31:37.299Z,999.03
2019-04-04T21:33:30.011Z,998.95
2019-04-04T21:34:29.860Z,999.00
2019-04-04T21:36:22.527Z,999.04
2019-04-04T21:37:22.416Z,999.04
2019-04-04T21:39:15.119Z,999.07
2019-04-04T21:40:14.968Z,999.03
2019-04-04T21:42:07.627Z,999.09
2019-04-04T21:43:07.514Z,999.09
2019-04-04T21:45:00.200Z,999.11
2019-04-04T21:46:00.066Z,999.12
2019-04-04T21:47:52.815Z,999.11
2019-04-04T21:48:52.621Z,999.10
2019-04-04T21:50:45.299Z,999.05
2019-04-04T21:51:45.187Z,999.03
2019-04-04T21:53:37.874Z,999.04
2019-04-04T21:54:37.768Z,999.07
2019-04-04T21:56:30.452Z,999.11